Time;durP1;ratioP1;P1;durP2;ratioP2;P2;SDS_P1;SDS_P2;PMS_P1;PMS_P2;Temp;Humidity;BMP_temperature;BMP_pressure;BME280_temperature;BME280_humidity;BME280_pressure;Samples;Min_cycle;Max_cycle;Signal;HPM_P1;HPM_P2
2022/12/09 00:01:14;;;;;;;44.30;16.73;;;-1.30;99.90;;;;;;5049257;28;20112;-66
2022/12/09 00:03:40;;;;;;;40.95;15.98;;;-1.40;99.90;;;;;;5049884;28;20114;-64
2022/12/09 00:06:11;;;;;;;43.25;16.08;;;-1.40;99.90;;;;;;5043853;28;20041;-64
2022/12/09 00:08:36;;;;;;;43.88;17.30;;;-1.40;99.90;;;;;;5045504;28;20052;-64
2022/12/09 00:11:02;;;;;;;44.60;18.15;;;-1.40;99.90;;;;;;5047968;28;20068;-65
2022/12/09 00:13:28;;;;;;;48.75;18.23;;;-1.40;99.90;;;;;;5047187;28;20029;-65
2022/12/09 00:15:55;;;;;;;43.08;17.50;;;-1.40;99.90;;;;;;5048931;28;20037;-64
2022/12/09 00:18:20;;;;;;;42.65;16.75;;;-1.40;99.90;;;;;;5045093;28;20477;-66
2022/12/09 00:20:46;;;;;;;39.28;15.85;;;-1.40;99.90;;;;;;5049525;28;20177;-65
2022/12/09 00:23:12;;;;;;;37.63;15.20;;;-1.40;99.90;;;;;;5041532;28;20144;-64
2022/12/09 00:25:37;;;;;;;39.38;16.00;;;-1.40;99.90;;;;;;5039505;28;20041;-65
2022/12/09 00:28:03;;;;;;;41.08;15.82;;;-1.40;99.90;;;;;;5049990;28;20101;-64
2022/12/09 00:30:29;;;;;;;46.20;15.95;;;-1.40;99.90;;;;;;5045394;28;20031;-64
2022/12/09 00:32:54;;;;;;;41.90;16.85;;;-1.40;99.90;;;;;;5036945;28;20038;-66
2022/12/09 00:35:20;;;;;;;42.03;16.15;;;-1.40;99.90;;;;;;5049360;28;20040;-65
2022/12/09 00:37:46;;;;;;;42.22;16.88;;;-1.40;99.90;;;;;;5047692;28;20049;-65
2022/12/09 00:40:12;;;;;;;47.78;16.70;;;-1.40;99.90;;;;;;5033342;28;20056;-65
2022/12/09 00:42:37;;;;;;;41.17;15.40;;;-1.40;99.90;;;;;;5028916;28;20052;-64
2022/12/09 00:45:03;;;;;;;41.55;16.13;;;-1.40;99.90;;;;;;5044467;28;20041;-65
2022/12/09 00:47:29;;;;;;;44.75;15.93;;;-1.40;99.90;;;;;;5047943;28;20481;-63
2022/12/09 00:49:55;;;;;;;33.03;14.45;;;-1.40;99.90;;;;;;5030859;28;20083;-64
2022/12/09 00:52:20;;;;;;;36.03;14.43;;;-1.40;99.90;;;;;;5028076;28;20087;-65
2022/12/09 00:54:46;;;;;;;39.30;15.85;;;-1.40;99.90;;;;;;5041278;28;20037;-63
2022/12/09 00:57:11;;;;;;;38.83;15.52;;;-1.40;99.90;;;;;;5040305;28;20087;-64
2022/12/09 00:59:37;;;;;;;35.00;14.68;;;-1.40;99.90;;;;;;5028495;28;20025;-64
2022/12/09 01:02:03;;;;;;;38.17;15.57;;;-1.40;99.90;;;;;;5030359;28;20033;-64
2022/12/09 01:04:28;;;;;;;35.42;14.75;;;-1.40;99.90;;;;;;5048483;28;20395;-64
2022/12/09 01:06:54;;;;;;;37.15;15.13;;;-1.50;99.90;;;;;;5032792;28;20060;-65
2022/12/09 01:09:19;;;;;;;38.83;15.50;;;-1.50;99.90;;;;;;5041301;28;20045;-64
2022/12/09 01:11:45;;;;;;;38.33;15.93;;;-1.50;99.90;;;;;;5045399;28;20028;-64
2022/12/09 01:14:11;;;;;;;36.35;15.05;;;-1.50;99.90;;;;;;5049058;28;20370;-64
2022/12/09 01:16:36;;;;;;;45.65;15.70;;;-1.60;99.90;;;;;;5045678;28;20032;-64
2022/12/09 01:19:06;;;;;;;42.75;15.55;;;-1.70;99.90;;;;;;5049295;28;20032;-63
2022/12/09 01:21:33;;;;;;;43.90;16.07;;;-1.70;99.90;;;;;;5046412;28;20104;-64
2022/12/09 01:23:59;;;;;;;36.20;14.77;;;-1.90;99.90;;;;;;5046405;28;20348;-63
2022/12/09 01:26:24;;;;;;;42.10;14.52;;;-1.90;99.90;;;;;;5044482;28;20037;-65
2022/12/09 01:28:53;;;;;;;37.53;15.05;;;-1.90;99.90;;;;;;5048086;28;20098;-64
2022/12/09 01:31:22;;;;;;;43.03;15.45;;;-1.90;99.90;;;;;;5035565;28;20474;-64
2022/12/09 01:33:49;;;;;;;36.80;14.23;;;-1.90;99.90;;;;;;5030611;28;20729;-63
2022/12/09 01:36:17;;;;;;;36.42;15.00;;;-1.90;99.90;;;;;;5047639;28;20041;-64
2022/12/09 01:38:44;;;;;;;41.92;16.05;;;-1.90;99.90;;;;;;5041631;28;20052;-63
2022/12/09 01:41:10;;;;;;;35.28;14.80;;;-2.00;99.90;;;;;;5028921;28;20095;-64
2022/12/09 01:43:37;;;;;;;34.60;15.10;;;-2.10;99.90;;;;;;5033364;28;20036;-65
2022/12/09 01:46:03;;;;;;;37.40;15.15;;;-2.10;99.90;;;;;;5048440;28;20040;-63
2022/12/09 01:48:36;;;;;;;35.22;14.95;;;-2.20;99.90;;;;;;5046855;28;20047;-64
2022/12/09 01:51:15;;;;;;;32.80;14.07;;;-2.20;99.90;;;;;;5047047;28;20029;-64
2022/12/09 01:53:44;;;;;;;35.80;14.30;;;-2.20;99.90;;;;;;5040032;28;20044;-65
2022/12/09 01:56:23;;;;;;;37.97;14.73;;;-2.30;99.90;;;;;;5028656;28;20029;-64
2022/12/09 01:58:49;;;;;;;35.55;14.18;;;-2.30;99.90;;;;;;5033394;28;20028;-64
2022/12/09 02:01:16;;;;;;;36.08;14.32;;;-2.30;99.90;;;;;;5043039;28;20444;-65
2022/12/09 02:03:42;;;;;;;38.78;14.23;;;-2.30;99.90;;;;;;5041472;28;20075;-62
2022/12/09 02:06:08;;;;;;;38.33;14.63;;;-2.30;99.90;;;;;;5048332;28;20040;-64
2022/12/09 02:08:34;;;;;;;36.42;15.02;;;-2.30;99.90;;;;;;5044437;28;20037;-64
2022/12/09 02:11:41;;;;;;;38.05;15.13;;;-2.30;99.90;;;;;;5046987;28;20025;-63
2022/12/09 02:14:15;;;;;;;37.65;13.85;;;-2.30;99.90;;;;;;5020188;28;20045;-64
2022/12/09 02:16:55;;;;;;;44.08;15.93;;;-2.30;99.90;;;;;;5026565;28;20431;-64
2022/12/09 02:19:50;;;;;;;37.35;14.57;;;-2.40;99.90;;;;;;5045661;28;20029;-64
2022/12/09 02:22:23;;;;;;;40.92;15.00;;;-2.50;99.90;;;;;;5046671;28;20040;-63
2022/12/09 02:24:56;;;;;;;43.88;16.58;;;-2.40;99.90;;;;;;5041126;28;20310;-64
2022/12/09 02:27:48;;;;;;;37.92;14.23;;;-2.50;99.90;;;;;;5042787;28;20076;-64
2022/12/09 02:30:23;;;;;;;35.95;14.32;;;-2.40;99.90;;;;;;5048199;28;20550;-64
2022/12/09 02:33:31;;;;;;;35.63;13.90;;;-2.50;99.90;;;;;;5045840;28;20029;-65
2022/12/09 02:36:04;;;;;;;31.30;13.40;;;-2.50;99.90;;;;;;5043054;28;20033;-64
2022/12/09 02:38:32;;;;;;;37.40;14.88;;;-2.50;99.90;;;;;;5010404;28;20029;-66
2022/12/09 02:41:15;;;;;;;37.97;15.15;;;-2.60;99.90;;;;;;5040829;28;20040;-64
2022/12/09 02:43:46;;;;;;;40.90;16.13;;;-2.80;99.90;;;;;;5047242;28;20752;-65
2022/12/09 02:46:14;;;;;;;38.88;14.52;;;-2.90;99.90;;;;;;5045750;28;20033;-64
2022/12/09 02:48:44;;;;;;;41.22;15.13;;;-2.90;99.90;;;;;;5047323;28;20033;-64
2022/12/09 02:51:15;;;;;;;36.25;14.43;;;-3.00;99.90;;;;;;5028865;28;20860;-63
2022/12/09 02:53:43;;;;;;;37.63;14.52;;;-3.00;99.90;;;;;;5031357;28;20082;-65
2022/12/09 02:56:11;;;;;;;38.20;13.68;;;-3.00;99.90;;;;;;5047308;28;20461;-63
2022/12/09 02:58:37;;;;;;;38.63;14.05;;;-3.00;99.90;;;;;;5042112;28;20025;-64
2022/12/09 03:01:03;;;;;;;34.75;12.90;;;-3.00;99.90;;;;;;5046488;28;20038;-64
2022/12/09 03:03:32;;;;;;;37.22;13.80;;;-3.00;99.90;;;;;;5045122;28;20033;-64
2022/12/09 03:06:07;;;;;;;37.38;13.60;;;-3.00;99.90;;;;;;5047419;28;20033;-64
2022/12/09 03:08:57;;;;;;;37.13;14.27;;;-2.90;99.90;;;;;;5035669;28;20453;-65
2022/12/09 03:11:24;;;;;;;38.15;13.10;;;-2.90;99.90;;;;;;5027789;28;20026;-64
2022/12/09 03:14:10;;;;;;;37.47;13.82;;;-2.90;99.90;;;;;;5039717;28;20116;-65
2022/12/09 03:16:58;;;;;;;35.67;13.35;;;-2.90;99.90;;;;;;5050540;28;20048;-65
2022/12/09 03:19:59;;;;;;;36.88;14.60;;;-2.80;99.90;;;;;;5045927;28;20037;-64
2022/12/09 03:22:31;;;;;;;35.60;13.52;;;-2.80;99.90;;;;;;5049850;28;20118;-62
2022/12/09 03:25:07;;;;;;;34.47;14.15;;;-2.80;99.90;;;;;;5060822;28;20033;-63
2022/12/09 03:27:49;;;;;;;38.85;13.35;;;-2.90;99.90;;;;;;5047958;28;20028;-64
2022/12/09 03:30:16;;;;;;;40.28;13.73;;;-2.90;99.90;;;;;;5048539;28;20044;-64
2022/12/09 03:32:43;;;;;;;31.33;13.20;;;-2.90;99.90;;;;;;5049084;28;20087;-65
2022/12/09 03:35:16;;;;;;;36.28;14.25;;;-2.90;99.90;;;;;;5048995;28;20094;-63
2022/12/09 03:37:43;;;;;;;36.80;14.02;;;-2.90;99.90;;;;;;5031999;28;20402;-64
2022/12/09 03:40:13;;;;;;;36.08;13.82;;;-2.90;99.90;;;;;;5048914;28;20025;-63
2022/12/09 03:43:04;;;;;;;27.25;9.65;;;-2.80;99.90;;;;;;5045589;28;20036;-65
2022/12/09 03:45:31;;;;;;;34.65;13.15;;;-2.80;99.90;;;;;;5048443;28;20029;-64
2022/12/09 03:47:57;;;;;;;34.25;13.68;;;-2.80;99.90;;;;;;5048643;28;20240;-64
2022/12/09 03:50:26;;;;;;;29.88;13.20;;;-2.80;99.90;;;;;;5048900;28;20539;-64
2022/12/09 03:53:09;;;;;;;35.28;13.60;;;-2.80;99.90;;;;;;5048619;28;20087;-63
2022/12/09 03:56:01;;;;;;;34.25;13.55;;;-2.80;99.90;;;;;;5047311;28;20051;-66
2022/12/09 03:58:29;;;;;;;33.67;12.23;;;-2.90;99.90;;;;;;5048808;28;20021;-64
2022/12/09 04:00:55;;;;;;;31.60;12.95;;;-2.90;99.90;;;;;;5046617;28;20033;-64
2022/12/09 04:03:21;;;;;;;37.13;13.77;;;-2.90;99.90;;;;;;5049133;28;20037;-64
2022/12/09 04:05:46;;;;;;;35.22;13.57;;;-3.00;99.90;;;;;;5045867;28;20033;-64
2022/12/09 04:08:12;;;;;;;33.05;12.70;;;-3.00;99.90;;;;;;5049556;28;20048;-65
2022/12/09 04:10:39;;;;;;;36.80;12.60;;;-3.00;99.90;;;;;;5034898;28;20029;-65
2022/12/09 04:13:04;;;;;;;36.42;12.85;;;-3.00;99.90;;;;;;5034236;28;20482;-63
2022/12/09 04:15:30;;;;;;;32.33;12.98;;;-3.00;99.90;;;;;;5045244;28;20121;-64
2022/12/09 04:17:55;;;;;;;33.85;12.95;;;-3.00;99.90;;;;;;5029039;28;20033;-64
2022/12/09 04:20:21;;;;;;;35.90;14.68;;;-3.00;99.90;;;;;;5030242;28;20100;-64
2022/12/09 04:22:47;;;;;;;37.38;14.68;;;-3.00;99.90;;;;;;5020662;28;20387;-65
2022/12/09 04:25:12;;;;;;;39.47;14.25;;;-3.00;99.90;;;;;;5009747;28;20076;-63
2022/12/09 04:27:38;;;;;;;39.20;14.02;;;-3.00;99.90;;;;;;5049093;28;20037;-66
2022/12/09 04:30:05;;;;;;;38.78;12.98;;;-3.10;99.90;;;;;;5043718;28;20037;-64
2022/12/09 04:32:30;;;;;;;34.65;12.50;;;-3.10;99.90;;;;;;5036848;28;20083;-64
2022/12/09 04:34:56;;;;;;;40.85;15.57;;;-3.10;99.90;;;;;;5029285;28;20688;-64
2022/12/09 04:37:22;;;;;;;45.75;16.98;;;-3.10;99.90;;;;;;5046852;28;20070;-64
2022/12/09 04:39:47;;;;;;;42.60;15.20;;;-3.10;99.90;;;;;;5039327;28;20037;-63
2022/12/09 04:42:13;;;;;;;40.33;14.60;;;-3.10;99.90;;;;;;5027406;28;20029;-63
2022/12/09 04:44:40;;;;;;;44.38;15.40;;;-3.10;99.90;;;;;;5029528;28;20367;-66
2022/12/09 04:47:05;;;;;;;49.72;17.20;;;-3.00;99.90;;;;;;5034417;28;20041;-64
2022/12/09 04:49:31;;;;;;;44.70;16.48;;;-3.00;99.90;;;;;;5029799;28;20036;-65
2022/12/09 04:51:57;;;;;;;44.35;16.38;;;-3.00;99.90;;;;;;5027530;28;20060;-64
2022/12/09 04:54:22;;;;;;;37.17;14.77;;;-2.90;99.90;;;;;;5047180;28;20044;-62
2022/12/09 04:56:48;;;;;;;41.80;14.65;;;-3.00;99.90;;;;;;5037053;28;20089;-66
2022/12/09 04:59:15;;;;;;;36.17;14.27;;;-3.00;99.90;;;;;;5017928;28;20039;-63
2022/12/09 05:01:40;;;;;;;41.33;14.35;;;-3.10;99.90;;;;;;5039114;28;20092;-64
2022/12/09 05:04:06;;;;;;;33.30;13.05;;;-3.10;99.90;;;;;;5029879;28;20037;-64
2022/12/09 05:06:32;;;;;;;32.63;12.48;;;-3.10;99.90;;;;;;5029205;28;20524;-64
2022/12/09 05:08:58;;;;;;;39.78;16.67;;;-3.10;99.90;;;;;;5043721;28;20090;-65
2022/12/09 05:11:23;;;;;;;43.85;17.02;;;-3.10;99.90;;;;;;5049070;28;20029;-65
2022/12/09 05:13:50;;;;;;;40.13;16.02;;;-3.10;99.90;;;;;;5038828;28;20060;-63
2022/12/09 05:16:18;;;;;;;39.50;16.02;;;-3.10;99.90;;;;;;5042043;28;20064;-65
2022/12/09 05:18:45;;;;;;;36.00;15.00;;;-3.00;99.90;;;;;;5025764;28;20129;-65
2022/12/09 05:21:14;;;;;;;41.75;16.85;;;-3.00;99.90;;;;;;5025862;28;20029;-64
2022/12/09 05:23:40;;;;;;;37.80;15.57;;;-2.90;99.90;;;;;;5033972;28;20496;-66
2022/12/09 05:26:09;;;;;;;46.88;17.33;;;-2.90;99.90;;;;;;5029993;28;20053;-65
2022/12/09 05:28:35;;;;;;;55.92;20.20;;;-2.90;99.90;;;;;;5027361;28;20402;-64
2022/12/09 05:31:02;;;;;;;53.80;19.45;;;-2.80;99.90;;;;;;5024172;28;20114;-64
2022/12/09 05:33:28;;;;;;;48.97;17.92;;;-2.80;99.90;;;;;;5026191;28;20152;-64
2022/12/09 05:35:54;;;;;;;46.83;17.70;;;-2.80;99.90;;;;;;5029785;28;20048;-64
2022/12/09 05:38:20;;;;;;;61.30;22.17;;;-2.80;99.90;;;;;;5033236;28;20029;-63
2022/12/09 05:40:46;;;;;;;64.95;23.35;;;-2.80;99.90;;;;;;5027760;28;20034;-64
2022/12/09 05:43:12;;;;;;;56.60;20.92;;;-2.80;99.90;;;;;;5039633;28;20032;-64
2022/12/09 05:45:37;;;;;;;51.85;18.27;;;-2.80;99.90;;;;;;5036781;28;20123;-64
2022/12/09 05:48:03;;;;;;;48.20;17.30;;;-2.80;99.90;;;;;;5031942;28;20107;-63
2022/12/09 05:50:28;;;;;;;45.53;16.70;;;-2.80;99.90;;;;;;5028321;28;20040;-63
2022/12/09 05:52:54;;;;;;;44.13;17.13;;;-2.80;99.90;;;;;;5026735;28;20041;-64
2022/12/09 05:55:20;;;;;;;49.35;17.52;;;-2.80;99.90;;;;;;5028921;28;20064;-64
2022/12/09 05:57:45;;;;;;;41.67;15.93;;;-2.80;99.90;;;;;;5025677;28;20060;-64
2022/12/09 06:00:12;;;;;;;52.85;21.15;;;-2.70;99.90;;;;;;5025397;28;20038;-64
2022/12/09 06:02:38;;;;;;;44.72;17.70;;;-2.70;99.90;;;;;;5043237;28;20024;-65
2022/12/09 06:05:04;;;;;;;38.83;16.13;;;-2.70;99.90;;;;;;5029339;28;20025;-64
2022/12/09 06:07:29;;;;;;;47.50;16.83;;;-2.80;99.90;;;;;;5025135;28;20033;-64
2022/12/09 06:09:55;;;;;;;38.10;15.32;;;-2.70;99.90;;;;;;5026847;28;20087;-65
2022/12/09 06:12:20;;;;;;;38.45;14.82;;;-2.60;99.90;;;;;;5048254;28;20041;-64
2022/12/09 06:14:46;;;;;;;40.15;15.98;;;-2.60;99.90;;;;;;5043897;28;20021;-65
2022/12/09 06:17:12;;;;;;;42.28;15.88;;;-2.60;99.90;;;;;;5046310;28;20033;-64
2022/12/09 06:19:37;;;;;;;46.85;17.23;;;-2.60;99.90;;;;;;5041518;28;20629;-65
2022/12/09 06:22:03;;;;;;;44.10;16.27;;;-2.60;99.90;;;;;;5028063;28;20757;-65
2022/12/09 06:24:29;;;;;;;37.78;14.68;;;-2.70;99.90;;;;;;5028218;28;20040;-65
2022/12/09 06:26:55;;;;;;;39.45;15.23;;;-2.70;99.90;;;;;;5024828;28;20049;-64
2022/12/09 06:29:20;;;;;;;39.60;14.20;;;-2.70;99.90;;;;;;5026740;28;20510;-64
2022/12/09 06:31:46;;;;;;;43.20;15.52;;;-2.60;99.90;;;;;;5047465;28;20051;-66
2022/12/09 06:34:12;;;;;;;39.70;14.75;;;-2.60;99.90;;;;;;5036096;28;20029;-64
2022/12/09 06:36:37;;;;;;;40.58;14.80;;;-2.60;99.90;;;;;;5043997;28;21217;-64
2022/12/09 06:39:04;;;;;;;47.92;17.63;;;-2.50;99.90;;;;;;5025464;28;20701;-65
2022/12/09 06:41:30;;;;;;;64.47;23.67;;;-2.50;99.90;;;;;;5044636;28;20449;-65
2022/12/09 06:43:56;;;;;;;53.42;20.70;;;-2.50;99.90;;;;;;5022954;28;20036;-64
2022/12/09 06:46:22;;;;;;;59.47;23.33;;;-2.50;99.90;;;;;;5041929;28;20037;-63
2022/12/09 06:48:48;;;;;;;63.22;22.98;;;-2.50;99.90;;;;;;5030492;28;20037;-66
2022/12/09 06:51:16;;;;;;;63.40;22.80;;;-2.50;99.90;;;;;;5047239;28;20051;-64
2022/12/09 06:53:42;;;;;;;58.45;20.73;;;-2.50;99.90;;;;;;5042472;28;20028;-62
2022/12/09 06:56:10;;;;;;;58.22;20.85;;;-2.50;99.90;;;;;;5049514;28;20044;-63
2022/12/09 06:58:35;;;;;;;54.30;20.52;;;-2.50;99.90;;;;;;5033311;28;20123;-64
2022/12/09 07:01:21;;;;;;;58.70;20.95;;;-2.50;99.90;;;;;;5050698;28;20513;-63
2022/12/09 07:03:50;;;;;;;109.55;32.45;;;-2.40;99.90;;;;;;5019455;28;20714;-65
2022/12/09 07:06:22;;;;;;;67.32;24.30;;;-2.40;99.90;;;;;;5029130;28;20794;-65
2022/12/09 07:08:48;;;;;;;65.95;23.48;;;-2.30;99.90;;;;;;5039733;28;20055;-66
2022/12/09 07:11:13;;;;;;;56.47;21.05;;;-2.30;99.90;;;;;;5045475;28;20138;-64
2022/12/09 07:13:39;;;;;;;45.72;16.83;;;-2.20;99.90;;;;;;5037640;28;20033;-64
2022/12/09 07:16:05;;;;;;;41.42;15.98;;;-2.30;99.90;;;;;;5042134;28;20052;-64
2022/12/09 07:18:30;;;;;;;48.63;17.60;;;-2.40;99.90;;;;;;5050400;28;20052;-66
2022/12/09 07:20:56;;;;;;;47.55;17.15;;;-2.50;99.90;;;;;;5041205;28;20029;-65
2022/12/09 07:23:22;;;;;;;52.35;18.75;;;-2.50;99.90;;;;;;5046398;28;20644;-64
2022/12/09 07:25:56;;;;;;;56.60;20.63;;;-2.40;99.90;;;;;;5039358;28;20044;-65
2022/12/09 07:28:21;;;;;;;58.30;22.60;;;-2.30;99.90;;;;;;5043088;28;20151;-64
2022/12/09 07:30:47;;;;;;;56.95;22.05;;;-2.20;99.90;;;;;;5030257;28;20151;-64
2022/12/09 07:33:12;;;;;;;61.70;22.40;;;-2.10;99.90;;;;;;5027870;28;20037;-64
2022/12/09 07:35:38;;;;;;;59.65;21.63;;;-2.00;99.90;;;;;;5036045;28;20043;-65
2022/12/09 07:38:04;;;;;;;52.42;20.85;;;-1.90;99.90;;;;;;5030399;28;20064;-63
2022/12/09 07:40:29;;;;;;;61.95;22.65;;;-1.70;99.90;;;;;;5026889;28;20053;-64
2022/12/09 07:42:55;;;;;;;60.95;22.02;;;-1.60;99.90;;;;;;5029915;28;20034;-64
2022/12/09 07:45:21;;;;;;;58.25;22.20;;;-1.50;99.90;;;;;;5028070;28;20033;-64
2022/12/09 07:47:46;;;;;;;57.30;21.58;;;-1.50;99.90;;;;;;5038831;28;20037;-65
2022/12/09 07:50:12;;;;;;;52.80;21.00;;;-1.40;99.90;;;;;;5047729;28;20060;-64
2022/12/09 07:52:38;;;;;;;56.55;20.15;;;-1.40;99.90;;;;;;5036445;28;20033;-65
2022/12/09 07:55:04;;;;;;;62.92;21.27;;;-1.40;99.90;;;;;;5033604;28;20038;-63
2022/12/09 07:57:29;;;;;;;53.63;20.60;;;-1.40;99.90;;;;;;5028079;28;20394;-64
2022/12/09 07:59:55;;;;;;;54.22;20.42;;;-1.30;99.90;;;;;;5026237;28;20033;-64
2022/12/09 08:02:21;;;;;;;50.13;19.33;;;-1.30;99.90;;;;;;5033834;28;20028;-64
2022/12/09 08:04:46;;;;;;;57.58;20.95;;;-1.30;99.90;;;;;;5032906;28;20036;-64
2022/12/09 08:07:12;;;;;;;49.78;20.27;;;-1.30;99.90;;;;;;5028386;28;20040;-64
2022/12/09 08:09:38;;;;;;;46.22;19.08;;;-1.20;99.90;;;;;;5017220;28;20032;-62
2022/12/09 08:12:03;;;;;;;53.63;20.92;;;-1.10;99.90;;;;;;5025352;28;20026;-64
2022/12/09 08:14:29;;;;;;;53.15;20.35;;;-1.10;99.90;;;;;;5035719;28;20025;-65
2022/12/09 08:16:55;;;;;;;60.42;22.80;;;-1.00;99.90;;;;;;5040674;28;20086;-63
2022/12/09 08:19:20;;;;;;;65.25;23.98;;;-1.10;99.90;;;;;;5043146;28;20040;-64
2022/12/09 08:21:46;;;;;;;48.72;20.40;;;-1.10;99.90;;;;;;5029322;28;20048;-64
2022/12/09 08:24:12;;;;;;;52.17;21.20;;;-1.00;99.90;;;;;;5045597;28;20266;-64
2022/12/09 08:26:38;;;;;;;48.03;19.20;;;-1.00;99.90;;;;;;5026302;28;20036;-64
2022/12/09 08:29:12;;;;;;;50.28;20.00;;;-0.90;99.90;;;;;;5025945;28;20037;-64
2022/12/09 08:31:39;;;;;;;48.53;19.15;;;-0.90;99.90;;;;;;5046100;28;20656;-64
2022/12/09 08:34:05;;;;;;;48.60;18.63;;;-0.80;99.90;;;;;;5031902;28;20547;-65
2022/12/09 08:36:31;;;;;;;46.65;19.00;;;-0.80;99.90;;;;;;5041297;28;20043;-63
2022/12/09 08:38:59;;;;;;;47.20;18.73;;;-0.70;99.90;;;;;;5042621;28;20032;-63
2022/12/09 08:41:34;;;;;;;48.63;20.48;;;-0.70;99.90;;;;;;5031089;28;20657;-63
2022/12/09 08:44:20;;;;;;;48.13;18.85;;;-0.70;99.90;;;;;;5033573;28;20095;-64
2022/12/09 08:46:48;;;;;;;53.08;19.95;;;-0.60;99.90;;;;;;5037222;28;20075;-64
2022/12/09 08:49:17;;;;;;;50.60;19.92;;;-0.60;99.90;;;;;;5029289;28;20035;-64
2022/12/09 08:51:43;;;;;;;48.10;19.58;;;-0.50;99.90;;;;;;5049579;28;20071;-63
2022/12/09 08:54:09;;;;;;;48.95;19.48;;;-0.50;99.90;;;;;;5035914;28;20398;-64
2022/12/09 08:56:35;;;;;;;49.40;19.40;;;-0.50;99.90;;;;;;5029709;28;20041;-64
2022/12/09 08:59:01;;;;;;;55.50;20.88;;;-0.50;99.90;;;;;;5028068;28;20048;-65
2022/12/09 09:01:31;;;;;;;71.55;24.50;;;-0.40;99.90;;;;;;5034994;28;20033;-63
2022/12/09 09:04:01;;;;;;;68.47;26.48;;;-0.40;99.90;;;;;;5034296;28;20072;-64
2022/12/09 09:06:27;;;;;;;67.53;24.95;;;-0.30;99.90;;;;;;5028084;28;20095;-64
2022/12/09 09:08:54;;;;;;;50.53;19.63;;;-0.30;99.90;;;;;;5031420;28;20037;-67
2022/12/09 09:11:19;;;;;;;57.28;20.25;;;-0.30;99.90;;;;;;5028685;28;20060;-64
2022/12/09 09:13:47;;;;;;;46.80;20.05;;;-0.30;99.90;;;;;;5036894;28;20439;-65
2022/12/09 09:16:15;;;;;;;62.72;23.30;;;-0.30;99.90;;;;;;5031237;28;20112;-65
2022/12/09 09:18:42;;;;;;;47.15;19.15;;;-0.30;99.90;;;;;;5031143;28;20095;-66
2022/12/09 09:21:10;;;;;;;52.33;20.30;;;-0.30;99.90;;;;;;5035000;28;20465;-65
2022/12/09 09:23:36;;;;;;;54.30;21.20;;;-0.30;99.90;;;;;;5043797;28;20058;-65
2022/12/09 09:26:02;;;;;;;54.20;21.23;;;-0.30;99.90;;;;;;5028015;28;20102;-64
2022/12/09 09:28:27;;;;;;;50.30;19.58;;;-0.20;99.90;;;;;;5027728;28;20040;-65
2022/12/09 09:31:01;;;;;;;55.47;21.40;;;-0.10;99.90;;;;;;5043225;28;20070;-67
2022/12/09 09:33:27;;;;;;;51.42;20.58;;;0.00;99.90;;;;;;5034658;28;20526;-65
2022/12/09 09:35:55;;;;;;;57.88;21.77;;;0.00;99.90;;;;;;5027221;28;20060;-65
2022/12/09 09:38:21;;;;;;;56.03;21.67;;;0.00;99.90;;;;;;5043799;28;20029;-65
2022/12/09 09:40:46;;;;;;;65.13;23.10;;;0.00;99.90;;;;;;5028830;28;20041;-66
2022/12/09 09:43:21;;;;;;;62.53;20.30;;;0.00;99.90;;;;;;5024072;28;20056;-66
2022/12/09 09:45:47;;;;;;;67.97;24.65;;;0.00;99.90;;;;;;5025692;28;20022;-66
2022/12/09 09:48:18;;;;;;;61.92;21.08;;;0.00;99.90;;;;;;5027265;28;20044;-66
2022/12/09 09:51:03;;;;;;;69.85;29.42;;;0.10;99.90;;;;;;5037897;28;20036;-65
2022/12/09 09:53:32;;;;;;;56.60;20.85;;;0.10;99.90;;;;;;5027879;28;20548;-66
2022/12/09 09:56:24;;;;;;;59.00;22.42;;;0.10;99.90;;;;;;5023074;28;20550;-67
2022/12/09 09:59:18;;;;;;;48.33;18.40;;;0.10;99.90;;;;;;5025511;28;20187;-66
2022/12/09 10:01:55;;;;;;;65.75;21.17;;;0.10;99.90;;;;;;5025036;28;20025;-65
2022/12/09 10:05:08;;;;;;;63.60;21.55;;;0.10;99.90;;;;;;5029769;28;20044;-66
2022/12/09 10:07:51;;;;;;;64.65;20.90;;;0.10;99.90;;;;;;5030702;28;20052;-66
2022/12/09 10:10:19;;;;;;;74.82;24.75;;;0.10;99.90;;;;;;5044968;28;20021;-64
2022/12/09 10:12:58;;;;;;;78.05;23.30;;;0.20;99.90;;;;;;5026117;28;20056;-66
2022/12/09 10:15:37;;;;;;;73.13;23.33;;;0.10;99.90;;;;;;5031941;28;20036;-65
2022/12/09 10:18:17;;;;;;;67.90;22.10;;;0.10;99.90;;;;;;5028165;28;20064;-66
2022/12/09 10:20:43;;;;;;;78.90;22.92;;;0.10;99.90;;;;;;5037450;28;20036;-65
2022/12/09 10:23:14;;;;;;;74.60;23.27;;;0.20;99.90;;;;;;5047578;28;20045;-65
2022/12/09 10:25:53;;;;;;;;;;;0.10;99.90;;;;;;5035594;28;20033;-64
2022/12/09 10:28:33;;;;;;;73.93;21.90;;;0.10;99.90;;;;;;5029327;28;19928;-65
2022/12/09 10:30:58;;;;;;;84.45;25.77;;;0.20;99.90;;;;;;5042046;28;20119;-67
2022/12/09 10:33:37;;;;;;;78.13;23.23;;;0.20;99.90;;;;;;5030870;28;21519;-64
2022/12/09 10:36:04;;;;;;;86.57;24.55;;;0.30;99.90;;;;;;5023761;28;20037;-65
2022/12/09 10:38:31;;;;;;;77.18;23.88;;;0.40;99.90;;;;;;5031050;28;20025;-64
2022/12/09 10:43:33;;;;;;;87.25;24.92;;;0.40;99.90;;;;;;5029658;28;20029;-66
2022/12/09 10:44:18;;;;;;;69.43;22.75;;;0.40;99.90;;;;;;5042030;28;20041;-64
2022/12/09 10:46:44;;;;;;;89.72;26.73;;;0.40;99.90;;;;;;5029137;28;20056;-64
2022/12/09 10:49:19;;;;;;;78.95;24.98;;;0.40;99.90;;;;;;5028754;28;20041;-64
2022/12/09 10:51:50;;;;;;;75.47;23.33;;;0.50;99.90;;;;;;5038159;28;20033;-65
2022/12/09 10:54:36;;;;;;;76.20;22.90;;;0.60;99.90;;;;;;5048404;28;20112;-66
2022/12/09 10:57:13;;;;;;;69.32;21.25;;;0.60;99.90;;;;;;5051151;28;20413;-68
2022/12/09 10:59:41;;;;;;;73.53;24.30;;;0.70;99.90;;;;;;5034255;28;20036;-66
2022/12/09 11:02:07;;;;;;;66.78;23.63;;;0.80;99.90;;;;;;5030550;28;20044;-65
2022/12/09 11:04:35;;;;;;;70.40;22.85;;;0.90;99.90;;;;;;5030924;28;20124;-65
2022/12/09 11:07:06;;;;;;;61.63;21.02;;;0.90;99.90;;;;;;5036913;28;20067;-68
2022/12/09 11:09:34;;;;;;;63.60;21.55;;;1.00;99.90;;;;;;5039570;28;20029;-66
2022/12/09 11:12:02;;;;;;;63.60;21.50;;;1.00;99.90;;;;;;5025336;28;20033;-65
2022/12/09 11:14:33;;;;;;;74.50;24.55;;;1.00;99.90;;;;;;5031614;28;20040;-66
2022/12/09 11:17:10;;;;;;;64.68;23.63;;;0.90;99.90;;;;;;5030123;28;20095;-67
2022/12/09 11:19:37;;;;;;;63.88;22.77;;;0.80;99.90;;;;;;5027643;28;20039;-65
2022/12/09 11:22:22;;;;;;;72.03;23.02;;;0.80;99.90;;;;;;5028099;28;20057;-67
2022/12/09 11:24:52;;;;;;;67.10;22.90;;;0.80;99.90;;;;;;5028961;28;20033;-65
2022/12/09 11:27:29;;;;;;;66.95;25.23;;;0.90;99.90;;;;;;5029133;28;20036;-66
2022/12/09 11:30:13;;;;;;;66.90;23.50;;;0.80;99.90;;;;;;5035541;28;20041;-64
2022/12/09 11:32:54;;;;;;;70.00;25.15;;;0.80;99.90;;;;;;5030551;28;20045;-65
2022/12/09 11:35:36;;;;;;;123.55;38.25;;;0.80;99.90;;;;;;5028527;28;20053;-65
2022/12/09 11:38:22;;;;;;;94.53;29.85;;;0.90;99.90;;;;;;5031928;28;20398;-70
2022/12/09 11:41:00;;;;;;;80.50;26.38;;;0.90;99.90;;;;;;5026755;28;20041;-68
2022/12/09 11:43:43;;;;;;;73.95;26.30;;;0.90;99.90;;;;;;5028176;28;20040;-67
2022/12/09 11:46:12;;;;;;;66.55;23.38;;;0.80;99.90;;;;;;5026368;28;20054;-67
2022/12/09 11:48:49;;;;;;;71.68;23.83;;;0.80;99.90;;;;;;5035690;28;20034;-65
2022/12/09 11:51:37;;;;;;;70.22;24.65;;;0.90;99.90;;;;;;5029656;28;20037;-64
2022/12/09 11:54:27;;;;;;;73.63;24.00;;;1.00;99.90;;;;;;5029397;28;20053;-67
2022/12/09 11:56:57;;;;;;;63.15;22.05;;;1.00;99.90;;;;;;5047325;28;20035;-65
2022/12/09 11:59:43;;;;;;;74.20;25.42;;;1.10;99.90;;;;;;5049297;28;20035;-65
2022/12/09 12:02:26;;;;;;;71.18;24.13;;;1.10;99.90;;;;;;5038135;28;20022;-66
2022/12/09 12:05:06;;;;;;;70.75;23.92;;;1.10;99.90;;;;;;5030713;28;20504;-67
2022/12/09 12:07:42;;;;;;;72.57;24.08;;;1.10;99.90;;;;;;5030648;28;20033;-66
2022/12/09 12:10:35;;;;;;;77.75;25.70;;;1.10;99.90;;;;;;5036280;28;20033;-66
2022/12/09 12:13:13;;;;;;;78.32;26.80;;;1.20;99.90;;;;;;5036978;28;20040;-66
2022/12/09 12:16:17;;;;;;;79.00;26.08;;;1.10;99.90;;;;;;5048436;28;20036;-66
2022/12/09 12:18:52;;;;;;;75.57;23.92;;;1.10;99.90;;;;;;5048844;28;20429;-66
2022/12/09 12:21:46;;;;;;;77.50;26.73;;;1.10;99.90;;;;;;5045177;28;20048;-66
2022/12/09 12:24:40;;;;;;;77.10;25.85;;;1.10;99.90;;;;;;5036331;28;20103;-65
2022/12/09 12:27:18;;;;;;;81.07;24.73;;;1.10;99.90;;;;;;5036161;28;20555;-66
2022/12/09 12:29:55;;;;;;;82.07;26.27;;;1.20;99.90;;;;;;5030280;28;20030;-66
2022/12/09 12:32:30;;;;;;;79.63;24.27;;;1.30;99.90;;;;;;5039726;28;20044;-71
2022/12/09 12:35:34;;;;;;;70.03;25.20;;;1.20;99.90;;;;;;5040477;28;20029;-70
2022/12/09 12:38:37;;;;;;;82.82;26.55;;;1.20;99.90;;;;;;5041640;28;20116;-65
2022/12/09 12:41:15;;;;;;;88.47;27.35;;;1.10;99.90;;;;;;5039404;28;20115;-69
2022/12/09 12:47:33;;;;;;;80.38;26.20;;;1.00;99.90;;;;;;5023243;28;20060;-67
2022/12/09 12:50:23;;;;;;;85.43;25.90;;;1.00;99.90;;;;;;5030900;28;20128;-68
2022/12/09 12:52:58;;;;;;;88.93;26.90;;;0.90;99.90;;;;;;5042167;28;20474;-66